Time;durP1;ratioP1;P1;durP2;ratioP2;P2;SDS_P1;SDS_P2;PMS_P1;PMS_P2;Temp;Humidity;BMP_temperature;BMP_pressure;BME280_temperature;BME280_humidity;BME280_pressure;Samples;Min_cycle;Max_cycle;Signal;HPM_P1;HPM_P2
2023/02/08 00:00:29;;;;;;;16.70;7.07;;;7.70;48.40;;;;;;7567970;23;20011;-67
2023/02/08 00:03:30;;;;;;;16.33;6.75;;;7.60;48.50;;;;;;7567849;23;20007;-68
2023/02/08 00:06:31;;;;;;;15.18;7.00;;;7.70;48.60;;;;;;7542288;23;20081;-67
2023/02/08 00:09:32;;;;;;;21.88;8.05;;;7.60;48.70;;;;;;7541828;23;20503;-67
2023/02/08 00:12:33;;;;;;;18.88;6.95;;;7.60;48.80;;;;;;7567854;23;20021;-67
2023/02/08 00:15:39;;;;;;;20.63;7.10;;;7.60;48.90;;;;;;7542839;23;20007;-68
2023/02/08 00:18:40;;;;;;;17.20;6.38;;;7.60;49.00;;;;;;7541900;23;20058;-66
2023/02/08 00:21:41;;;;;;;16.60;7.05;;;7.50;49.10;;;;;;7567757;23;20013;-66
2023/02/08 00:24:42;;;;;;;11.07;5.20;;;7.50;49.10;;;;;;7543236;23;20377;-66
2023/02/08 00:27:43;;;;;;;18.45;7.25;;;7.50;49.30;;;;;;7571497;23;20018;-66
2023/02/08 00:30:45;;;;;;;11.05;4.75;;;7.40;49.40;;;;;;7574128;23;20058;-66
2023/02/08 00:33:46;;;;;;;13.35;5.15;;;7.30;49.60;;;;;;7569120;23;20010;-66
2023/02/08 00:36:47;;;;;;;14.60;5.93;;;7.30;49.70;;;;;;7542162;23;20280;-68
2023/02/08 00:39:48;;;;;;;12.40;5.70;;;7.20;49.90;;;;;;7557061;23;20110;-67
2023/02/08 00:42:50;;;;;;;13.73;5.70;;;7.20;50.00;;;;;;7566118;23;20022;-67
2023/02/08 00:45:55;;;;;;;18.33;5.47;;;7.10;50.10;;;;;;7565685;23;20113;-66
2023/02/08 00:48:58;;;;;;;10.63;5.30;;;7.00;50.10;;;;;;7565751;23;20440;-67
2023/02/08 00:51:59;;;;;;;23.27;6.43;;;7.00;50.10;;;;;;7569469;23;20100;-67
2023/02/08 00:54:59;;;;;;;14.95;5.60;;;7.00;50.10;;;;;;7570945;23;20014;-66
2023/02/08 00:58:00;;;;;;;14.60;5.90;;;7.00;50.20;;;;;;7571017;23;20029;-66
2023/02/08 01:01:03;;;;;;;13.25;5.75;;;7.00;50.20;;;;;;7571261;23;20085;-66
2023/02/08 01:04:06;;;;;;;8.82;4.85;;;7.00;50.30;;;;;;7566020;23;20143;-66
2023/02/08 01:07:07;;;;;;;11.82;4.97;;;7.00;50.40;;;;;;7565495;23;20011;-65
2023/02/08 01:10:11;;;;;;;13.40;5.93;;;6.90;50.50;;;;;;7542111;23;20013;-66
2023/02/08 01:13:12;;;;;;;13.05;5.90;;;6.80;50.60;;;;;;7565956;23;20451;-67
2023/02/08 01:16:26;;;;;;;12.77;5.97;;;6.80;51.40;;;;;;7565542;23;20010;-65
2023/02/08 01:19:27;;;;;;;13.70;5.93;;;6.70;50.90;;;;;;7566840;23;20362;-67
2023/02/08 01:22:29;;;;;;;23.45;5.35;;;6.70;51.00;;;;;;7567217;23;20011;-68
2023/02/08 01:25:30;;;;;;;14.32;5.30;;;6.70;51.20;;;;;;7565429;23;20094;-66
2023/02/08 01:28:32;;;;;;;12.10;5.32;;;6.60;51.30;;;;;;7564885;23;20010;-66
2023/02/08 01:31:36;;;;;;;9.23;5.40;;;6.60;51.30;;;;;;7565655;23;20014;-66
2023/02/08 01:34:37;;;;;;;10.38;4.70;;;6.60;51.40;;;;;;7565148;23;20014;-67
2023/02/08 01:37:39;;;;;;;24.05;6.07;;;6.50;51.50;;;;;;7564905;23;20081;-68
2023/02/08 01:40:40;;;;;;;18.52;5.97;;;6.50;51.70;;;;;;7566760;23;20006;-66
2023/02/08 01:44:01;;;;;;;15.35;6.95;;;6.40;51.70;;;;;;7566815;23;20088;-66
2023/02/08 01:47:02;;;;;;;17.50;5.53;;;7.10;52.00;;;;;;7540675;23;20098;-66
2023/02/08 01:50:03;;;;;;;15.32;6.50;;;6.50;51.80;;;;;;7541352;23;20495;-66
2023/02/08 01:53:04;;;;;;;16.02;6.82;;;6.50;51.90;;;;;;7567307;23;20077;-66
2023/02/08 01:56:19;;;;;;;20.45;7.78;;;6.40;51.50;;;;;;7566866;23;20444;-65
2023/02/08 01:59:26;;;;;;;15.57;6.85;;;6.40;52.00;;;;;;7540831;23;20016;-66
2023/02/08 02:02:29;;;;;;;18.95;6.65;;;6.40;52.00;;;;;;7541264;23;20013;-67
2023/02/08 02:05:37;;;;;;;19.00;6.82;;;6.40;52.00;;;;;;7541450;23;20017;-66
2023/02/08 02:08:44;;;;;;;19.85;7.20;;;6.40;52.00;;;;;;7540759;23;20011;-66
2023/02/08 02:11:45;;;;;;;22.35;9.05;;;6.50;51.90;;;;;;7517389;23;20010;-66
2023/02/08 02:14:46;;;;;;;29.17;7.50;;;6.50;51.70;;;;;;7541124;23;20010;-66
2023/02/08 02:17:47;;;;;;;12.15;6.00;;;6.40;51.40;;;;;;7543360;23;20011;-67
2023/02/08 02:21:10;;;;;;;17.98;7.07;;;6.40;51.30;;;;;;7568842;23;20009;-66
2023/02/08 02:24:41;;;;;;;25.17;6.97;;;6.30;51.30;;;;;;7543751;23;20058;-65
2023/02/08 02:28:10;;;;;;;14.98;6.35;;;6.20;51.30;;;;;;7543413;23;20361;-67
2023/02/08 02:31:13;;;;;;;22.83;6.18;;;6.20;51.40;;;;;;7543476;23;20021;-67
2023/02/08 02:34:48;;;;;;;15.40;7.22;;;6.20;51.50;;;;;;7569180;23;20054;-66
2023/02/08 02:38:01;;;;;;;12.40;6.28;;;6.20;51.50;;;;;;7542859;23;20006;-66
2023/02/08 02:45:21;;;;;;;17.35;6.32;;;6.20;51.50;;;;;;7543291;23;20328;-68
2023/02/08 02:48:51;;;;;;;22.60;6.40;;;6.20;51.40;;;;;;7543144;23;20074;-66
2023/02/08 02:52:07;;;;;;;11.55;5.35;;;6.30;51.30;;;;;;7536640;23;20017;-66
2023/02/08 02:55:14;;;;;;;11.10;5.55;;;6.30;51.20;;;;;;7568623;23;20017;-68
2023/02/08 02:58:19;;;;;;;12.07;5.28;;;6.30;51.20;;;;;;7543163;23;20010;-66
2023/02/08 03:01:25;;;;;;;11.80;5.30;;;6.30;51.20;;;;;;7569157;23;20002;-66
2023/02/08 03:04:32;;;;;;;15.15;5.55;;;6.30;51.10;;;;;;7567116;23;20014;-66
2023/02/08 03:07:54;;;;;;;14.02;7.07;;;6.30;51.20;;;;;;7568696;23;20015;-67
2023/02/08 03:11:04;;;;;;;18.38;5.97;;;6.20;51.20;;;;;;7545495;23;20010;-66
2023/02/08 03:14:27;;;;;;;14.60;6.82;;;6.20;51.30;;;;;;7574568;23;20407;-65
2023/02/08 03:17:52;;;;;;;12.68;5.65;;;6.20;51.40;;;;;;7568526;23;20328;-66
2023/02/08 03:21:19;;;;;;;17.52;6.65;;;6.10;51.30;;;;;;7543036;23;20007;-66
2023/02/08 03:24:19;;;;;;;13.90;5.90;;;6.20;51.30;;;;;;7542428;23;20014;-65
2023/02/08 03:27:32;;;;;;;12.48;6.10;;;6.10;51.20;;;;;;7518255;23;20010;-67
2023/02/08 03:30:44;;;;;;;12.27;5.35;;;6.10;51.20;;;;;;7568215;23;20010;-67
2023/02/08 03:33:53;;;;;;;10.15;5.70;;;6.20;51.10;;;;;;7568011;23;20400;-67
2023/02/08 03:37:06;;;;;;;16.70;7.18;;;6.20;51.10;;;;;;7542631;23;20380;-67
2023/02/08 03:40:21;;;;;;;12.88;5.13;;;6.20;51.20;;;;;;7567987;23;20007;-66
2023/02/08 03:43:41;;;;;;;13.43;5.10;;;6.10;51.30;;;;;;7567960;23;20053;-66
2023/02/08 03:46:49;;;;;;;11.45;5.72;;;6.10;51.50;;;;;;7518286;23;20021;-66
2023/02/08 03:49:53;;;;;;;15.82;6.22;;;6.10;51.70;;;;;;7567711;23;20047;-65
2023/02/08 03:52:55;;;;;;;12.07;5.07;;;6.00;51.70;;;;;;7542698;23;20038;-67
2023/02/08 03:56:01;;;;;;;13.30;5.82;;;6.00;51.80;;;;;;7567819;23;20427;-67
2023/02/08 03:59:08;;;;;;;16.27;5.40;;;6.00;51.90;;;;;;7567709;23;20073;-66
2023/02/08 04:02:15;;;;;;;11.48;6.93;;;5.90;52.00;;;;;;7567878;23;20010;-66
2023/02/08 04:05:17;;;;;;;16.15;5.93;;;5.90;52.20;;;;;;7568228;23;20011;-67
2023/02/08 04:08:18;;;;;;;16.25;5.65;;;6.00;52.30;;;;;;7567857;23;20032;-66
2023/02/08 04:11:19;;;;;;;11.38;4.88;;;6.00;52.30;;;;;;7570241;23;20009;-66
2023/02/08 04:14:20;;;;;;;22.98;6.00;;;6.00;52.20;;;;;;7547145;23;20018;-66
2023/02/08 04:17:21;;;;;;;15.15;5.90;;;6.00;52.10;;;;;;7547093;23;20003;-66
2023/02/08 04:20:22;;;;;;;14.25;5.63;;;6.00;52.10;;;;;;7568158;23;20006;-66
2023/02/08 04:23:23;;;;;;;11.27;6.03;;;6.00;52.10;;;;;;7542665;23;20014;-66
2023/02/08 04:26:24;;;;;;;11.82;5.00;;;5.90;52.10;;;;;;7518808;23;20085;-66
2023/02/08 04:29:25;;;;;;;16.00;5.80;;;5.90;52.10;;;;;;7567556;23;20006;-66
2023/02/08 04:32:26;;;;;;;13.95;4.82;;;5.90;52.20;;;;;;7542032;23;20006;-66
2023/02/08 04:35:27;;;;;;;13.52;5.80;;;5.90;52.40;;;;;;7567686;23;20034;-66
2023/02/08 04:38:28;;;;;;;9.50;4.80;;;5.90;52.50;;;;;;7567019;23;20420;-66
2023/02/08 04:41:29;;;;;;;16.55;6.82;;;5.90;52.60;;;;;;7542094;23;20018;-66
2023/02/08 04:44:31;;;;;;;13.38;5.18;;;5.80;52.70;;;;;;7567284;23;20018;-66
2023/02/08 04:47:32;;;;;;;15.93;6.65;;;5.90;52.70;;;;;;7541553;23;20440;-66
2023/02/08 04:50:34;;;;;;;16.35;6.20;;;5.90;52.70;;;;;;7541762;23;20093;-66
2023/02/08 04:53:34;;;;;;;12.65;5.97;;;5.90;52.50;;;;;;7567115;23;20018;-66
2023/02/08 04:56:36;;;;;;;20.02;6.40;;;5.90;52.50;;;;;;7567319;23;20377;-67
2023/02/08 04:59:37;;;;;;;11.07;6.18;;;5.90;52.40;;;;;;7541673;23;20002;-66
2023/02/08 05:02:38;;;;;;;12.45;6.32;;;5.80;52.30;;;;;;7567138;23;20046;-66
2023/02/08 05:05:39;;;;;;;14.55;7.15;;;5.80;52.30;;;;;;7567252;23;20037;-68
2023/02/08 05:08:40;;;;;;;13.60;6.82;;;5.80;52.40;;;;;;7566843;23;20304;-67
2023/02/08 05:11:41;;;;;;;10.43;5.55;;;5.80;52.40;;;;;;7541914;23;20010;-67
2023/02/08 05:14:42;;;;;;;12.13;6.03;;;5.80;52.40;;;;;;7567002;23;20285;-65
2023/02/08 05:17:43;;;;;;;13.60;6.15;;;5.80;52.40;;;;;;7566991;23;20006;-66
2023/02/08 05:20:44;;;;;;;14.23;6.93;;;5.80;52.30;;;;;;7567113;23;20093;-66
2023/02/08 05:23:45;;;;;;;16.58;6.85;;;5.80;52.30;;;;;;7567062;23;20082;-66
2023/02/08 05:26:46;;;;;;;13.90;6.00;;;5.90;52.30;;;;;;7567003;23;20303;-65
2023/02/08 05:29:47;;;;;;;17.23;6.28;;;5.80;52.30;;;;;;7517252;23;20145;-66
2023/02/08 05:32:48;;;;;;;13.52;5.80;;;5.80;52.30;;;;;;7541442;23;20006;-66
2023/02/08 05:35:49;;;;;;;12.73;5.35;;;5.80;52.50;;;;;;7541684;23;20018;-66
2023/02/08 05:38:52;;;;;;;13.25;6.25;;;5.70;52.50;;;;;;7566774;23;20424;-67
2023/02/08 05:41:53;;;;;;;17.35;7.35;;;5.70;52.70;;;;;;7567250;23;20075;-66
2023/02/08 05:44:54;;;;;;;14.20;6.57;;;5.60;52.70;;;;;;7541310;23;20024;-67
2023/02/08 05:47:55;;;;;;;14.93;6.28;;;5.60;52.80;;;;;;7566873;23;20013;-68
2023/02/08 05:50:56;;;;;;;22.90;6.38;;;5.50;52.90;;;;;;7567241;23;20010;-66
2023/02/08 05:53:57;;;;;;;12.73;5.90;;;5.50;52.90;;;;;;7572271;23;20013;-66
2023/02/08 05:56:58;;;;;;;16.73;5.68;;;5.50;53.00;;;;;;7569643;23;20007;-67
2023/02/08 05:59:59;;;;;;;14.98;5.80;;;5.40;53.10;;;;;;7567174;23;20006;-66
2023/02/08 06:03:00;;;;;;;15.20;7.63;;;5.40;53.20;;;;;;7541478;23;20003;-66
2023/02/08 06:06:01;;;;;;;14.63;6.53;;;5.30;53.20;;;;;;7567078;23;20006;-66
2023/02/08 06:09:02;;;;;;;10.57;6.15;;;5.30;53.20;;;;;;7516900;23;20007;-67
2023/02/08 06:12:03;;;;;;;11.43;6.28;;;5.30;53.20;;;;;;7517948;23;20002;-66
2023/02/08 06:15:05;;;;;;;18.85;7.20;;;5.30;53.30;;;;;;7541003;23;20015;-67
2023/02/08 06:18:06;;;;;;;15.48;6.93;;;5.30;53.30;;;;;;7567033;23;20014;-67
2023/02/08 06:21:08;;;;;;;15.75;6.80;;;5.30;53.40;;;;;;7567261;23;20010;-68
2023/02/08 06:24:10;;;;;;;15.07;7.47;;;5.30;53.40;;;;;;7567322;23;20029;-68
2023/02/08 06:27:11;;;;;;;12.68;6.90;;;5.30;53.50;;;;;;7566522;23;20006;-66
2023/02/08 06:30:12;;;;;;;20.77;7.22;;;5.20;53.60;;;;;;7566958;23;20041;-67
2023/02/08 06:33:13;;;;;;;14.25;6.57;;;5.20;53.70;;;;;;7541240;23;20432;-66
2023/02/08 06:36:14;;;;;;;27.80;7.18;;;5.20;53.70;;;;;;7566764;23;20006;-68
2023/02/08 06:39:15;;;;;;;12.80;5.97;;;5.20;53.70;;;;;;7548473;23;20015;-66
2023/02/08 06:42:16;;;;;;;10.68;5.05;;;5.20;53.70;;;;;;7565773;23;20361;-66
2023/02/08 06:45:17;;;;;;;15.68;6.30;;;5.30;53.70;;;;;;7564955;23;20018;-67
2023/02/08 06:48:19;;;;;;;10.75;5.78;;;5.30;53.80;;;;;;7566078;23;20013;-66
2023/02/08 06:51:21;;;;;;;17.40;6.65;;;5.20;53.70;;;;;;7566454;23;20318;-67
2023/02/08 06:54:23;;;;;;;14.35;5.75;;;5.20;53.70;;;;;;7566710;23;20108;-67
2023/02/08 06:57:24;;;;;;;17.55;6.78;;;5.20;53.70;;;;;;7566032;23;20038;-66
2023/02/08 07:00:25;;;;;;;13.68;7.30;;;5.20;53.80;;;;;;7565145;23;20011;-66
2023/02/08 07:03:26;;;;;;;15.40;6.90;;;5.20;53.90;;;;;;7566094;23;20034;-66
2023/02/08 07:06:27;;;;;;;14.80;5.82;;;5.20;54.00;;;;;;7568905;23;20011;-65
2023/02/08 07:09:28;;;;;;;23.33;7.50;;;5.20;54.00;;;;;;7568499;23;20373;-66
2023/02/08 07:12:32;;;;;;;15.13;7.47;;;5.20;54.00;;;;;;7569091;23;20008;-65
2023/02/08 07:15:34;;;;;;;10.10;4.95;;;5.20;53.90;;;;;;7568681;23;20092;-67
2023/02/08 07:18:35;;;;;;;33.35;6.75;;;5.20;53.90;;;;;;7542880;23;20123;-68
2023/02/08 07:21:36;;;;;;;13.43;6.07;;;5.20;53.90;;;;;;7568403;23;20069;-67
2023/02/08 07:24:39;;;;;;;19.70;7.60;;;5.20;54.10;;;;;;7568918;23;20020;-67
2023/02/08 07:27:40;;;;;;;15.82;6.00;;;5.20;54.10;;;;;;7569766;23;20336;-66
2023/02/08 07:30:41;;;;;;;20.25;7.65;;;5.30;54.10;;;;;;7545742;23;20021;-67
2023/02/08 07:33:43;;;;;;;12.90;6.55;;;5.30;53.90;;;;;;7568681;23;20011;-68
2023/02/08 07:36:44;;;;;;;17.20;6.95;;;5.40;53.90;;;;;;7568524;23;20466;-67
2023/02/08 07:39:45;;;;;;;15.32;6.97;;;5.40;53.80;;;;;;7567599;23;20010;-66
2023/02/08 07:42:46;;;;;;;18.17;8.18;;;5.40;53.70;;;;;;7568117;23;20006;-68
2023/02/08 07:46:19;;;;;;;16.23;6.17;;;5.30;53.70;;;;;;7541824;23;20014;-66
2023/02/08 07:49:21;;;;;;;23.48;6.57;;;5.30;53.80;;;;;;7567457;23;20002;-67
2023/02/08 07:52:21;;;;;;;27.17;7.32;;;5.30;53.70;;;;;;7542171;23;20062;-66
2023/02/08 07:55:22;;;;;;;12.35;5.95;;;5.30;53.70;;;;;;7542226;23;20025;-67
2023/02/08 07:58:24;;;;;;;16.23;7.90;;;5.30;53.70;;;;;;7567581;23;20085;-66
2023/02/08 08:01:25;;;;;;;11.98;5.72;;;5.30;53.70;;;;;;7542246;23;20010;-67
2023/02/08 08:04:26;;;;;;;16.73;7.80;;;5.20;53.70;;;;;;7542274;23;20014;-68
2023/02/08 08:07:27;;;;;;;25.20;8.23;;;5.20;53.90;;;;;;7540803;23;20325;-67
2023/02/08 08:10:28;;;;;;;12.93;6.75;;;5.20;54.10;;;;;;7541997;23;20089;-64
2023/02/08 08:13:29;;;;;;;20.10;7.05;;;5.20;54.10;;;;;;7567044;23;20015;-66
2023/02/08 08:16:30;;;;;;;15.20;7.28;;;5.20;54.20;;;;;;7542172;23;20030;-66
2023/02/08 08:19:31;;;;;;;16.02;6.65;;;5.20;54.20;;;;;;7567034;23;20010;-64
2023/02/08 08:22:32;;;;;;;16.80;6.57;;;5.30;54.00;;;;;;7542049;23;20038;-65
2023/02/08 08:25:33;;;;;;;27.38;8.32;;;5.30;53.90;;;;;;7543957;23;20089;-65
2023/02/08 08:28:35;;;;;;;20.85;8.57;;;5.30;53.90;;;;;;7568271;23;20081;-65
2023/02/08 08:31:37;;;;;;;20.33;7.40;;;5.40;53.80;;;;;;7567008;23;20007;-65
2023/02/08 08:34:38;;;;;;;25.88;8.65;;;5.50;53.80;;;;;;7567778;23;20130;-65
2023/02/08 08:37:39;;;;;;;15.50;8.05;;;5.50;53.60;;;;;;7566867;23;20277;-65
2023/02/08 08:40:40;;;;;;;21.25;8.98;;;5.70;53.50;;;;;;7541947;23;20057;-65
2023/02/08 08:43:41;;;;;;;22.13;8.50;;;5.70;53.30;;;;;;7517721;23;20089;-67
2023/02/08 08:46:43;;;;;;;22.02;8.75;;;5.80;53.20;;;;;;7567112;23;20009;-66
2023/02/08 08:49:44;;;;;;;21.73;9.32;;;5.80;53.10;;;;;;7541100;23;20016;-66
2023/02/08 08:52:45;;;;;;;22.20;10.05;;;5.90;53.10;;;;;;7566973;23;20007;-66
2023/02/08 08:55:46;;;;;;;22.17;8.02;;;6.00;53.10;;;;;;7541543;23;20006;-65
2023/02/08 08:58:47;;;;;;;26.33;10.43;;;6.10;52.80;;;;;;7566730;23;20002;-64
2023/02/08 09:01:48;;;;;;;23.50;10.02;;;6.20;52.50;;;;;;7517301;23;20011;-66
2023/02/08 09:04:49;;;;;;;23.67;10.70;;;6.30;52.40;;;;;;7541208;23;20049;-64
2023/02/08 09:07:50;;;;;;;26.42;8.60;;;6.40;52.30;;;;;;7540941;23;20014;-66
2023/02/08 09:10:51;;;;;;;15.88;7.30;;;6.40;52.10;;;;;;7517155;23;20010;-66
2023/02/08 09:13:55;;;;;;;27.30;8.63;;;6.40;51.90;;;;;;7566378;23;20016;-65
2023/02/08 09:16:56;;;;;;;20.38;8.38;;;6.40;51.80;;;;;;7541126;23;20006;-65
2023/02/08 09:19:57;;;;;;;21.92;9.05;;;6.10;51.60;;;;;;7541042;23;20087;-67
2023/02/08 09:22:58;;;;;;;22.98;9.85;;;6.70;51.60;;;;;;7566356;23;20057;-66
2023/02/08 09:26:02;;;;;;;18.00;8.68;;;6.70;51.30;;;;;;7539984;23;20013;-65
2023/02/08 09:29:05;;;;;;;24.80;9.00;;;6.90;51.30;;;;;;7540338;23;20011;-67
2023/02/08 09:32:06;;;;;;;29.67;10.07;;;7.00;50.90;;;;;;7540033;23;20006;-65
2023/02/08 09:35:08;;;;;;;25.40;10.60;;;7.10;50.80;;;;;;7540062;23;20066;-66
2023/02/08 09:38:09;;;;;;;28.20;8.98;;;7.10;50.70;;;;;;7539823;23;20420;-66
2023/02/08 09:41:31;;;;;;;30.83;9.35;;;7.30;50.60;;;;;;7540277;23;20065;-66
2023/02/08 09:44:46;;;;;;;27.33;10.07;;;7.40;50.30;;;;;;7540361;23;20387;-66
2023/02/08 09:47:58;;;;;;;32.58;10.85;;;7.50;50.20;;;;;;7565140;23;20103;-66
2023/02/08 09:51:09;;;;;;;30.25;10.00;;;7.60;49.90;;;;;;7540339;23;20014;-66
2023/02/08 09:54:27;;;;;;;23.35;10.68;;;7.60;49.80;;;;;;7565953;23;20033;-67
2023/02/08 09:57:33;;;;;;;24.90;9.75;;;7.70;49.50;;;;;;7539665;23;20032;-68
2023/02/08 10:00:40;;;;;;;33.65;11.93;;;7.70;49.40;;;;;;7565828;23;20466;-67
2023/02/08 10:03:43;;;;;;;25.88;8.30;;;7.80;49.50;;;;;;7566091;23;20010;-67
2023/02/08 10:06:45;;;;;;;29.33;10.98;;;7.90;49.30;;;;;;7540065;23;20089;-68
2023/02/08 10:09:46;;;;;;;43.20;11.18;;;7.90;49.00;;;;;;7565659;23;20010;-68
2023/02/08 10:13:18;;;;;;;19.73;9.38;;;7.90;49.00;;;;;;7566364;23;20348;-67
2023/02/08 10:16:28;;;;;;;23.25;9.85;;;8.00;48.60;;;;;;7491657;23;20059;-68
2023/02/08 10:19:44;;;;;;;26.10;10.18;;;8.10;48.20;;;;;;7471782;23;20027;-69
2023/02/08 10:22:56;;;;;;;27.05;10.95;;;8.10;48.20;;;;;;7493317;23;20019;-67
2023/02/08 10:26:23;;;;;;;25.55;9.45;;;8.30;47.90;;;;;;7468702;23;20461;-67
2023/02/08 10:29:36;;;;;;;18.20;8.00;;;8.50;47.10;;;;;;7491421;23;20016;-66
2023/02/08 10:32:37;;;;;;;24.63;9.82;;;8.80;46.40;;;;;;7467456;23;20135;-68
2023/02/08 10:35:43;;;;;;;21.25;8.73;;;9.00;45.80;;;;;;7491443;23;20067;-67
2023/02/08 10:38:46;;;;;;;25.35;10.85;;;9.10;45.60;;;;;;7507447;23;20034;-68
2023/02/08 10:41:47;;;;;;;30.13;12.05;;;9.30;45.60;;;;;;7529252;23;20054;-68
2023/02/08 10:45:17;;;;;;;18.98;8.93;;;9.50;45.40;;;;;;7505053;23;20015;-67
2023/02/08 10:48:44;;;;;;;26.88;9.77;;;9.60;44.90;;;;;;7529045;23;20015;-67
2023/02/08 10:51:46;;;;;;;22.42;9.73;;;9.70;44.60;;;;;;7540519;23;20014;-66
2023/02/08 10:54:47;;;;;;;27.15;11.98;;;9.80;44.20;;;;;;7569828;23;20017;-67
2023/02/08 10:57:52;;;;;;;21.73;9.93;;;9.90;43.70;;;;;;7569039;23;20003;-69
2023/02/08 11:00:56;;;;;;;23.05;9.85;;;10.00;43.30;;;;;;7568019;23;20499;-66
2023/02/08 11:04:10;;;;;;;32.25;11.40;;;10.00;43.10;;;;;;7568033;23;20007;-68
2023/02/08 11:07:20;;;;;;;29.33;11.90;;;10.10;43.10;;;;;;7566992;23;20010;-72
2023/02/08 11:10:24;;;;;;;24.17;10.82;;;10.30;43.00;;;;;;7567704;23;20387;-67
2023/02/08 11:13:47;;;;;;;33.42;12.32;;;10.50;43.00;;;;;;7567730;23;20033;-68
2023/02/08 11:16:54;;;;;;;20.23;9.30;;;10.80;42.60;;;;;;7565100;23;20081;-68
2023/02/08 11:19:57;;;;;;;24.15;11.13;;;11.20;41.50;;;;;;7565235;23;20007;-67
2023/02/08 11:22:59;;;;;;;27.88;10.77;;;11.40;41.10;;;;;;7566473;23;20009;-68
2023/02/08 11:26:34;;;;;;;23.88;11.45;;;11.70;40.40;;;;;;7565360;23;20105;-66
2023/02/08 11:29:35;;;;;;;21.00;9.57;;;12.10;39.90;;;;;;7491930;23;20010;-68
2023/02/08 11:32:36;;;;;;;25.48;9.60;;;12.30;38.30;;;;;;7468497;23;20087;-66
2023/02/08 11:35:39;;;;;;;27.63;10.13;;;12.40;37.70;;;;;;7468399;23;20012;-68
2023/02/08 11:38:42;;;;;;;23.20;10.40;;;12.60;37.20;;;;;;7468210;23;20479;-67
2023/02/08 11:41:45;;;;;;;24.38;10.95;;;12.90;36.70;;;;;;7493156;23;20049;-67
2023/02/08 11:44:47;;;;;;;30.23;11.30;;;13.30;36.40;;;;;;7492770;23;20485;-67
2023/02/08 11:47:50;;;;;;;24.98;11.45;;;13.70;36.10;;;;;;7492041;23;20022;-69
2023/02/08 11:51:01;;;;;;;27.73;11.00;;;14.30;35.80;;;;;;7493284;23;20091;-66
2023/02/08 11:54:04;;;;;;;28.65;11.65;;;14.90;35.00;;;;;;7468796;23;20015;-67
2023/02/08 11:57:21;;;;;;;26.52;11.88;;;15.30;33.50;;;;;;7492396;23;20007;-67
2023/02/08 12:00:25;;;;;;;27.60;11.80;;;15.50;33.10;;;;;;7493104;23;20015;-67
2023/02/08 12:03:38;;;;;;;25.08;11.27;;;15.70;32.60;;;;;;7495446;23;20515;-66
2023/02/08 12:07:01;;;;;;;30.15;12.75;;;15.80;32.70;;;;;;7566735;23;20057;-67
2023/02/08 12:10:11;;;;;;;28.52;11.85;;;16.10;32.30;;;;;;7567055;23;20010;-67
2023/02/08 12:13:24;;;;;;;26.55;11.55;;;16.60;31.90;;;;;;7567350;23;20006;-66
2023/02/08 12:17:04;;;;;;;25.92;11.93;;;17.00;30.60;;;;;;7567199;23;20130;-67
2023/02/08 12:20:05;;;;;;;;;;;17.10;29.50;;;;;;7492797;23;20011;-66
2023/02/08 12:23:27;;;;;;;29.67;12.20;;;16.70;29.90;;;;;;7491972;23;20216;-67
2023/02/08 12:26:28;;;;;;;28.15;12.27;;;16.10;30.90;;;;;;7492064;23;20314;-67
2023/02/08 12:29:35;;;;;;;25.35;11.77;;;15.60;31.60;;;;;;7491683;23;20011;-66
2023/02/08 12:32:54;;;;;;;32.25;13.02;;;15.20;32.70;;;;;;7491797;23;20031;-67
2023/02/08 12:36:33;;;;;;;35.50;14.15;;;14.80;33.40;;;;;;7491751;23;20030;-68
2023/02/08 12:44:27;;;;;;;26.05;12.10;;;14.30;34.40;;;;;;7398410;24;20395;-67
2023/02/08 12:47:39;;;;;;;30.52;13.57;;;14.00;34.60;;;;;;7398453;24;20399;-67
2023/02/08 12:50:57;;;;;;;41.75;13.38;;;13.80;35.00;;;;;;7421759;24;20016;-68
2023/02/08 12:54:22;;;;;;;28.42;12.85;;;13.70;35.10;;;;;;7421948;24;20012;-67
2023/02/08 12:57:26;;;;;;;32.85;12.68;;;13.60;35.40;;;;;;7444926;23;20448;-66
2023/02/08 13:00:33;;;;;;;25.02;12.20;;;13.50;35.60;;;;;;7468116;23;20338;-69
2023/02/08 13:04:09;;;;;;;31.83;13.77;;;13.30;35.90;;;;;;7492262;23;20026;-69
2023/02/08 13:07:25;;;;;;;32.97;12.48;;;13.10;36.10;;;;;;7386799;24;20040;-67
2023/02/08 13:10:38;;;;;;;28.42;12.60;;;12.90;36.30;;;;;;7386993;24;20024;-66
2023/02/08 13:13:41;;;;;;;28.10;13.13;;;12.80;36.70;;;;;;7364118;24;20051;-67
2023/02/08 13:16:48;;;;;;;32.28;14.23;;;12.60;37.10;;;;;;7388326;24;20069;-67
2023/02/08 13:19:53;;;;;;;28.50;12.65;;;12.60;37.10;;;;;;7434073;23;20136;-67
2023/02/08 13:23:00;;;;;;;26.25;11.98;;;12.40;37.20;;;;;;7434852;23;20106;-66
2023/02/08 13:26:10;;;;;;;30.83;13.13;;;12.30;37.40;;;;;;7457336;23;20008;-67
2023/02/08 13:29:18;;;;;;;27.55;11.77;;;12.20;37.50;;;;;;7435247;23;20012;-66
2023/02/08 13:32:28;;;;;;;29.17;13.48;;;12.10;37.80;;;;;;7436111;23;20012;-66
2023/02/08 13:35:30;;;;;;;32.13;12.52;;;12.10;37.90;;;;;;7457526;23;20015;-67
2023/02/08 13:38:35;;;;;;;32.70;13.38;;;12.00;38.00;;;;;;7455801;23;20115;-66
2023/02/08 13:41:36;;;;;;;30.05;13.13;;;12.00;38.10;;;;;;7456269;23;20038;-66
2023/02/08 13:44:39;;;;;;;29.48;11.20;;;12.00;38.10;;;;;;7538861;23;20088;-67
2023/02/08 13:47:47;;;;;;;25.25;11.82;;;12.00;38.00;;;;;;7565804;23;20030;-67
2023/02/08 13:50:53;;;;;;;32.60;12.45;;;12.00;38.20;;;;;;7566153;23;20078;-66
2023/02/08 13:53:54;;;;;;;23.75;10.80;;;12.10;38.30;;;;;;7564811;23;20369;-66
2023/02/08 13:56:55;;;;;;;29.98;11.90;;;12.10;38.10;;;;;;7564251;23;20119;-67
2023/02/08 14:00:24;;;;;;;27.52;11.13;;;12.20;38.10;;;;;;7564213;23;20003;-67
2023/02/08 14:03:26;;;;;;;28.53;11.03;;;12.20;38.10;;;;;;7558825;23;20369;-66
2023/02/08 14:06:30;;;;;;;25.80;11.60;;;12.20;38.00;;;;;;7566092;23;20049;-67
2023/02/08 14:09:45;;;;;;;33.20;12.55;;;12.20;38.00;;;;;;7565447;23;20424;-67
2023/02/08 14:12:55;;;;;;;24.58;11.40;;;12.20;37.90;;;;;;7568042;23;20007;-66
2023/02/08 14:16:21;;;;;;;27.38;11.13;;;12.80;38.20;;;;;;7566879;23;20017;-68
2023/02/08 14:19:23;;;;;;;29.13;12.23;;;12.30;37.80;;;;;;7568228;23;20130;-65
2023/02/08 14:22:34;;;;;;;26.98;11.93;;;12.20;37.80;;;;;;7568367;23;20024;-66
2023/02/08 14:25:40;;;;;;;34.92;13.57;;;12.20;37.80;;;;;;7566717;23;20010;-67
2023/02/08 14:28:44;;;;;;;27.75;11.68;;;12.20;37.80;;;;;;7566262;23;20087;-67
2023/02/08 14:31:45;;;;;;;26.48;10.85;;;12.10;38.40;;;;;;7568960;23;20015;-67
2023/02/08 14:34:47;;;;;;;26.60;10.52;;;12.20;37.90;;;;;;7568170;23;20013;-67
2023/02/08 14:38:09;;;;;;;22.85;11.27;;;12.20;37.90;;;;;;7566329;23;20006;-67
2023/02/08 14:41:10;;;;;;;25.38;10.90;;;12.30;37.90;;;;;;7568411;23;20038;-67
2023/02/08 14:44:42;;;;;;;23.08;9.90;;;12.30;37.80;;;;;;7543095;23;20089;-66
2023/02/08 14:47:43;;;;;;;18.65;9.75;;;12.30;37.90;;;;;;7542132;23;20029;-66
2023/02/08 14:51:01;;;;;;;21.55;9.10;;;12.30;37.80;;;;;;7568205;23;20014;-66
2023/02/08 14:54:24;;;;;;;24.58;10.52;;;12.30;37.60;;;;;;7542720;23;20010;-67
2023/02/08 14:57:30;;;;;;;22.48;10.13;;;12.30;37.60;;;;;;7567744;23;20006;-67
2023/02/08 15:00:37;;;;;;;29.08;11.27;;;12.30;37.70;;;;;;7568052;23;20014;-68
2023/02/08 15:03:39;;;;;;;31.02;10.90;;;12.30;37.70;;;;;;7568088;23;20006;-66
2023/02/08 15:07:31;;;;;;;28.40;10.73;;;12.40;37.70;;;;;;7568439;23;20451;-66
2023/02/08 15:10:34;;;;;;;31.15;11.98;;;12.40;37.80;;;;;;7458451;23;20015;-66
2023/02/08 15:13:35;;;;;;;30.80;11.32;;;12.40;37.70;;;;;;7458203;23;20083;-66
2023/02/08 15:16:42;;;;;;;34.25;11.27;;;12.40;37.70;;;;;;7434382;23;20004;-67
2023/02/08 15:19:46;;;;;;;24.52;10.70;;;12.30;37.60;;;;;;7457545;23;20403;-67
2023/02/08 15:22:47;;;;;;;28.35;10.30;;;12.30;37.50;;;;;;7457139;23;20150;-66
2023/02/08 15:26:18;;;;;;;23.42;9.70;;;12.30;37.50;;;;;;7457746;23;20035;-67
2023/02/08 15:29:25;;;;;;;22.92;10.98;;;12.30;37.60;;;;;;7433826;23;20119;-67
2023/02/08 15:32:28;;;;;;;20.45;8.60;;;12.30;37.50;;;;;;7457620;23;20179;-67
2023/02/08 15:35:33;;;;;;;20.15;9.05;;;12.30;37.40;;;;;;7410814;23;20044;-67
2023/02/08 15:38:37;;;;;;;23.33;9.65;;;12.30;37.30;;;;;;7469242;23;20396;-67
2023/02/08 15:41:38;;;;;;;26.63;9.65;;;12.20;37.20;;;;;;7551651;23;20057;-66
2023/02/08 15:44:43;;;;;;;19.88;8.27;;;12.20;37.20;;;;;;7567288;23;20439;-66
2023/02/08 15:47:44;;;;;;;24.10;8.82;;;12.20;37.20;;;;;;7566542;23;20017;-67
2023/02/08 15:50:45;;;;;;;19.85;8.68;;;12.20;37.30;;;;;;7567201;23;20074;-67
2023/02/08 15:53:52;;;;;;;24.30;10.15;;;12.10;37.30;;;;;;7565665;23;20111;-68
2023/02/08 15:57:07;;;;;;;21.05;8.85;;;12.10;37.30;;;;;;7567182;23;20305;-66
2023/02/08 16:00:18;;;;;;;29.88;10.15;;;12.10;37.30;;;;;;7565652;23;20011;-65
2023/02/08 16:03:22;;;;;;;21.33;8.65;;;12.10;37.40;;;;;;7542065;23;20333;-66
2023/02/08 16:06:28;;;;;;;18.38;9.00;;;12.10;37.30;;;;;;7565476;23;20384;-67
2023/02/08 16:09:29;;;;;;;19.85;7.68;;;12.00;37.40;;;;;;7566722;23;20057;-67